sensor_id;sensor_type;location;lat;lon;timestamp;P1;durP1;ratioP1;P2;durP2;ratioP2
5819;SDS011;2936;47.348;9.640;2023-01-01T00:00:01;184.13;;;103.15;;
5819;SDS011;2936;47.348;9.640;2023-01-01T00:02:28;199.40;;;115.63;;
5819;SDS011;2936;47.348;9.640;2023-01-01T00:04:56;225.35;;;124.72;;
5819;SDS011;2936;47.348;9.640;2023-01-01T00:07:23;228.50;;;127.95;;
5819;SDS011;2936;47.348;9.640;2023-01-01T00:09:50;221.82;;;130.55;;
5819;SDS011;2936;47.348;9.640;2023-01-01T00:12:36;209.05;;;115.80;;
5819;SDS011;2936;47.348;9.640;2023-01-01T00:15:05;220.20;;;128.48;;
5819;SDS011;2936;47.348;9.640;2023-01-01T00:17:32;213.68;;;120.97;;
5819;SDS011;2936;47.348;9.640;2023-01-01T00:20:00;230.30;;;134.93;;
5819;SDS011;2936;47.348;9.640;2023-01-01T00:22:27;224.70;;;132.63;;
5819;SDS011;2936;47.348;9.640;2023-01-01T00:24:54;244.43;;;138.32;;
5819;SDS011;2936;47.348;9.640;2023-01-01T00:27:22;257.80;;;144.40;;
5819;SDS011;2936;47.348;9.640;2023-01-01T00:29:49;253.73;;;144.65;;
5819;SDS011;2936;47.348;9.640;2023-01-01T00:32:18;262.27;;;144.32;;
5819;SDS011;2936;47.348;9.640;2023-01-01T00:34:45;255.85;;;142.05;;
5819;SDS011;2936;47.348;9.640;2023-01-01T00:37:12;262.77;;;146.50;;
5819;SDS011;2936;47.348;9.640;2023-01-01T00:39:42;269.13;;;149.65;;
5819;SDS011;2936;47.348;9.640;2023-01-01T00:42:09;255.35;;;140.02;;
5819;SDS011;2936;47.348;9.640;2023-01-01T00:44:36;296.10;;;164.48;;
5819;SDS011;2936;47.348;9.640;2023-01-01T00:47:04;272.67;;;158.63;;
5819;SDS011;2936;47.348;9.640;2023-01-01T00:49:32;288.02;;;162.38;;
5819;SDS011;2936;47.348;9.640;2023-01-01T00:52:00;255.20;;;142.75;;
5819;SDS011;2936;47.348;9.640;2023-01-01T00:54:27;271.20;;;149.13;;
5819;SDS011;2936;47.348;9.640;2023-01-01T00:56:54;235.40;;;131.23;;
5819;SDS011;2936;47.348;9.640;2023-01-01T00:59:22;239.20;;;133.48;;
5819;SDS011;2936;47.348;9.640;2023-01-01T01:01:49;233.18;;;131.10;;
5819;SDS011;2936;47.348;9.640;2023-01-01T01:04:17;198.65;;;116.57;;
5819;SDS011;2936;47.348;9.640;2023-01-01T01:06:45;183.77;;;101.18;;
5819;SDS011;2936;47.348;9.640;2023-01-01T01:09:13;130.60;;;72.22;;
5819;SDS011;2936;47.348;9.640;2023-01-01T01:11:40;87.30;;;45.50;;
5819;SDS011;2936;47.348;9.640;2023-01-01T01:14:07;100.28;;;57.92;;
5819;SDS011;2936;47.348;9.640;2023-01-01T01:16:35;126.00;;;67.72;;
5819;SDS011;2936;47.348;9.640;2023-01-01T01:19:03;86.63;;;47.85;;
5819;SDS011;2936;47.348;9.640;2023-01-01T01:21:31;122.25;;;64.05;;
5819;SDS011;2936;47.348;9.640;2023-01-01T01:24:01;119.85;;;66.30;;
5819;SDS011;2936;47.348;9.640;2023-01-01T01:26:30;149.80;;;80.32;;
5819;SDS011;2936;47.348;9.640;2023-01-01T01:28:57;171.98;;;97.18;;
5819;SDS011;2936;47.348;9.640;2023-01-01T01:31:26;191.02;;;105.72;;
5819;SDS011;2936;47.348;9.640;2023-01-01T01:33:53;211.30;;;111.72;;
5819;SDS011;2936;47.348;9.640;2023-01-01T01:36:21;204.40;;;114.63;;
5819;SDS011;2936;47.348;9.640;2023-01-01T01:38:48;198.75;;;111.35;;
5819;SDS011;2936;47.348;9.640;2023-01-01T01:41:18;182.43;;;105.43;;
5819;SDS011;2936;47.348;9.640;2023-01-01T01:43:49;185.63;;;105.20;;
5819;SDS011;2936;47.348;9.640;2023-01-01T01:46:18;167.93;;;94.97;;
5819;SDS011;2936;47.348;9.640;2023-01-01T01:48:47;157.13;;;88.50;;
5819;SDS011;2936;47.348;9.640;2023-01-01T01:51:15;155.43;;;87.97;;
5819;SDS011;2936;47.348;9.640;2023-01-01T01:53:44;150.50;;;80.72;;
5819;SDS011;2936;47.348;9.640;2023-01-01T01:56:13;148.90;;;83.95;;
5819;SDS011;2936;47.348;9.640;2023-01-01T01:58:43;127.50;;;66.13;;
5819;SDS011;2936;47.348;9.640;2023-01-01T02:01:10;130.95;;;68.60;;
5819;SDS011;2936;47.348;9.640;2023-01-01T02:03:38;127.82;;;72.25;;
5819;SDS011;2936;47.348;9.640;2023-01-01T02:06:07;124.85;;;69.38;;
5819;SDS011;2936;47.348;9.640;2023-01-01T02:08:35;136.88;;;76.47;;
5819;SDS011;2936;47.348;9.640;2023-01-01T02:11:02;132.55;;;73.50;;
5819;SDS011;2936;47.348;9.640;2023-01-01T02:13:30;135.02;;;74.05;;
5819;SDS011;2936;47.348;9.640;2023-01-01T02:15:59;118.55;;;66.55;;
5819;SDS011;2936;47.348;9.640;2023-01-01T02:18:28;127.45;;;71.10;;
5819;SDS011;2936;47.348;9.640;2023-01-01T02:21:00;127.15;;;67.57;;
5819;SDS011;2936;47.348;9.640;2023-01-01T02:23:43;136.07;;;70.20;;
5819;SDS011;2936;47.348;9.640;2023-01-01T02:26:17;127.00;;;64.82;;
5819;SDS011;2936;47.348;9.640;2023-01-01T02:28:51;126.30;;;68.72;;
5819;SDS011;2936;47.348;9.640;2023-01-01T02:31:21;119.65;;;68.53;;
5819;SDS011;2936;47.348;9.640;2023-01-01T02:33:51;111.97;;;64.18;;
5819;SDS011;2936;47.348;9.640;2023-01-01T02:36:19;113.53;;;61.80;;
5819;SDS011;2936;47.348;9.640;2023-01-01T02:38:49;109.72;;;58.75;;
5819;SDS011;2936;47.348;9.640;2023-01-01T02:41:18;102.50;;;60.88;;
5819;SDS011;2936;47.348;9.640;2023-01-01T02:43:47;120.13;;;62.83;;
5819;SDS011;2936;47.348;9.640;2023-01-01T02:46:16;124.50;;;68.60;;
5819;SDS011;2936;47.348;9.640;2023-01-01T02:48:44;137.27;;;72.22;;
5819;SDS011;2936;47.348;9.640;2023-01-01T02:51:15;122.90;;;71.95;;
5819;SDS011;2936;47.348;9.640;2023-01-01T02:53:45;118.82;;;65.28;;
5819;SDS011;2936;47.348;9.640;2023-01-01T02:56:15;128.77;;;63.55;;
5819;SDS011;2936;47.348;9.640;2023-01-01T02:58:46;123.40;;;64.88;;
5819;SDS011;2936;47.348;9.640;2023-01-01T03:01:35;33.28;;;19.17;;
5819;SDS011;2936;47.348;9.640;2023-01-01T03:04:06;8.25;;;6.80;;
5819;SDS011;2936;47.348;9.640;2023-01-01T03:06:38;6.28;;;4.07;;
5819;SDS011;2936;47.348;9.640;2023-01-01T03:09:10;3.55;;;3.35;;
5819;SDS011;2936;47.348;9.640;2023-01-01T03:11:41;3.78;;;3.58;;
5819;SDS011;2936;47.348;9.640;2023-01-01T03:14:11;2.92;;;2.83;;
5819;SDS011;2936;47.348;9.640;2023-01-01T03:16:42;3.05;;;2.88;;
5819;SDS011;2936;47.348;9.640;2023-01-01T03:19:13;3.53;;;3.33;;
5819;SDS011;2936;47.348;9.640;2023-01-01T03:21:43;3.20;;;3.00;;
5819;SDS011;2936;47.348;9.640;2023-01-01T03:24:12;3.78;;;3.58;;
5819;SDS011;2936;47.348;9.640;2023-01-01T03:26:40;3.22;;;3.03;;
5819;SDS011;2936;47.348;9.640;2023-01-01T03:29:10;2.78;;;2.63;;
5819;SDS011;2936;47.348;9.640;2023-01-01T03:31:39;2.92;;;2.83;;
5819;SDS011;2936;47.348;9.640;2023-01-01T03:34:11;2.72;;;2.63;;
5819;SDS011;2936;47.348;9.640;2023-01-01T03:36:40;3.03;;;2.85;;
5819;SDS011;2936;47.348;9.640;2023-01-01T03:39:10;2.60;;;2.50;;
5819;SDS011;2936;47.348;9.640;2023-01-01T03:41:39;2.67;;;2.58;;
5819;SDS011;2936;47.348;9.640;2023-01-01T03:44:10;4.10;;;2.85;;
5819;SDS011;2936;47.348;9.640;2023-01-01T03:46:38;2.55;;;2.45;;
5819;SDS011;2936;47.348;9.640;2023-01-01T03:49:07;2.88;;;2.78;;
5819;SDS011;2936;47.348;9.640;2023-01-01T03:51:42;68.43;;;36.88;;
5819;SDS011;2936;47.348;9.640;2023-01-01T03:54:13;68.72;;;42.85;;
5819;SDS011;2936;47.348;9.640;2023-01-01T03:56:44;71.68;;;44.72;;
5819;SDS011;2936;47.348;9.640;2023-01-01T03:59:14;69.10;;;42.45;;
5819;SDS011;2936;47.348;9.640;2023-01-01T04:01:45;60.22;;;37.47;;
5819;SDS011;2936;47.348;9.640;2023-01-01T04:04:14;50.28;;;33.45;;
5819;SDS011;2936;47.348;9.640;2023-01-01T04:06:44;50.42;;;32.60;;
5819;SDS011;2936;47.348;9.640;2023-01-01T04:09:12;50.92;;;32.00;;
5819;SDS011;2936;47.348;9.640;2023-01-01T04:11:42;53.00;;;33.25;;
5819;SDS011;2936;47.348;9.640;2023-01-01T04:14:27;54.83;;;32.78;;
5819;SDS011;2936;47.348;9.640;2023-01-01T04:16:55;49.30;;;30.73;;
5819;SDS011;2936;47.348;9.640;2023-01-01T04:19:22;45.08;;;29.67;;
5819;SDS011;2936;47.348;9.640;2023-01-01T04:21:51;45.70;;;29.48;;
5819;SDS011;2936;47.348;9.640;2023-01-01T04:24:18;46.78;;;28.77;;
5819;SDS011;2936;47.348;9.640;2023-01-01T04:26:47;45.90;;;28.05;;
5819;SDS011;2936;47.348;9.640;2023-01-01T04:29:14;44.08;;;27.50;;
5819;SDS011;2936;47.348;9.640;2023-01-01T04:31:42;44.03;;;26.40;;
5819;SDS011;2936;47.348;9.640;2023-01-01T04:34:09;39.80;;;25.75;;
5819;SDS011;2936;47.348;9.640;2023-01-01T04:36:37;42.45;;;27.02;;
5819;SDS011;2936;47.348;9.640;2023-01-01T04:39:06;42.30;;;25.58;;
5819;SDS011;2936;47.348;9.640;2023-01-01T04:41:34;42.65;;;25.50;;
5819;SDS011;2936;47.348;9.640;2023-01-01T04:44:01;41.53;;;26.08;;
5819;SDS011;2936;47.348;9.640;2023-01-01T04:46:29;44.90;;;25.60;;
5819;SDS011;2936;47.348;9.640;2023-01-01T04:48:56;36.17;;;22.80;;
5819;SDS011;2936;47.348;9.640;2023-01-01T04:51:24;39.35;;;23.90;;
5819;SDS011;2936;47.348;9.640;2023-01-01T04:53:51;30.88;;;20.55;;
5819;SDS011;2936;47.348;9.640;2023-01-01T04:56:20;36.55;;;20.42;;
5819;SDS011;2936;47.348;9.640;2023-01-01T04:58:48;32.17;;;20.92;;
5819;SDS011;2936;47.348;9.640;2023-01-01T05:01:17;33.28;;;21.00;;
5819;SDS011;2936;47.348;9.640;2023-01-01T05:03:45;38.35;;;22.58;;
5819;SDS011;2936;47.348;9.640;2023-01-01T05:06:12;33.50;;;21.23;;
5819;SDS011;2936;47.348;9.640;2023-01-01T05:08:40;34.35;;;23.30;;
5819;SDS011;2936;47.348;9.640;2023-01-01T05:11:08;32.30;;;22.45;;
5819;SDS011;2936;47.348;9.640;2023-01-01T05:13:38;31.40;;;20.45;;
5819;SDS011;2936;47.348;9.640;2023-01-01T05:16:06;35.05;;;22.52;;
5819;SDS011;2936;47.348;9.640;2023-01-01T05:18:34;33.28;;;21.63;;
5819;SDS011;2936;47.348;9.640;2023-01-01T05:21:02;33.60;;;21.20;;
5819;SDS011;2936;47.348;9.640;2023-01-01T05:23:30;32.75;;;21.77;;
5819;SDS011;2936;47.348;9.640;2023-01-01T05:25:57;34.30;;;21.65;;
5819;SDS011;2936;47.348;9.640;2023-01-01T05:28:25;37.88;;;21.65;;
5819;SDS011;2936;47.348;9.640;2023-01-01T05:30:54;36.25;;;21.75;;
5819;SDS011;2936;47.348;9.640;2023-01-01T05:33:21;34.30;;;20.67;;
5819;SDS011;2936;47.348;9.640;2023-01-01T05:35:51;31.92;;;19.48;;
5819;SDS011;2936;47.348;9.640;2023-01-01T05:38:19;35.03;;;21.13;;
5819;SDS011;2936;47.348;9.640;2023-01-01T05:40:47;34.42;;;22.40;;
5819;SDS011;2936;47.348;9.640;2023-01-01T05:43:15;31.98;;;21.33;;
5819;SDS011;2936;47.348;9.640;2023-01-01T05:45:42;32.88;;;21.52;;
5819;SDS011;2936;47.348;9.640;2023-01-01T05:48:11;41.95;;;22.48;;
5819;SDS011;2936;47.348;9.640;2023-01-01T05:50:38;33.90;;;21.13;;
5819;SDS011;2936;47.348;9.640;2023-01-01T05:53:05;30.17;;;19.90;;
5819;SDS011;2936;47.348;9.640;2023-01-01T05:55:33;30.83;;;20.63;;
5819;SDS011;2936;47.348;9.640;2023-01-01T05:58:00;30.23;;;20.10;;
5819;SDS011;2936;47.348;9.640;2023-01-01T06:00:27;33.30;;;21.17;;
5819;SDS011;2936;47.348;9.640;2023-01-01T06:02:55;33.83;;;20.42;;
5819;SDS011;2936;47.348;9.640;2023-01-01T06:05:23;37.42;;;21.98;;
5819;SDS011;2936;47.348;9.640;2023-01-01T06:07:51;36.53;;;22.83;;
5819;SDS011;2936;47.348;9.640;2023-01-01T06:10:18;38.40;;;23.85;;
5819;SDS011;2936;47.348;9.640;2023-01-01T06:12:45;33.97;;;21.77;;
5819;SDS011;2936;47.348;9.640;2023-01-01T06:15:13;38.78;;;20.83;;
5819;SDS011;2936;47.348;9.640;2023-01-01T06:17:40;32.63;;;21.45;;
5819;SDS011;2936;47.348;9.640;2023-01-01T06:20:08;38.67;;;20.73;;
5819;SDS011;2936;47.348;9.640;2023-01-01T06:22:37;29.73;;;20.67;;
5819;SDS011;2936;47.348;9.640;2023-01-01T06:25:04;37.72;;;21.90;;
5819;SDS011;2936;47.348;9.640;2023-01-01T06:27:33;31.27;;;20.83;;
5819;SDS011;2936;47.348;9.640;2023-01-01T06:30:00;33.60;;;21.63;;
5819;SDS011;2936;47.348;9.640;2023-01-01T06:32:28;37.15;;;22.33;;
5819;SDS011;2936;47.348;9.640;2023-01-01T06:34:55;34.58;;;21.88;;
5819;SDS011;2936;47.348;9.640;2023-01-01T06:37:23;33.10;;;21.38;;
5819;SDS011;2936;47.348;9.640;2023-01-01T06:39:51;35.88;;;22.52;;
5819;SDS011;2936;47.348;9.640;2023-01-01T06:42:19;37.17;;;22.02;;
5819;SDS011;2936;47.348;9.640;2023-01-01T06:44:46;38.22;;;23.45;;
5819;SDS011;2936;47.348;9.640;2023-01-01T06:47:13;39.00;;;23.38;;
5819;SDS011;2936;47.348;9.640;2023-01-01T06:49:41;38.45;;;22.27;;
5819;SDS011;2936;47.348;9.640;2023-01-01T06:52:08;36.90;;;22.58;;
5819;SDS011;2936;47.348;9.640;2023-01-01T06:54:36;34.75;;;22.92;;
5819;SDS011;2936;47.348;9.640;2023-01-01T06:57:04;33.33;;;21.92;;
5819;SDS011;2936;47.348;9.640;2023-01-01T06:59:32;30.20;;;21.02;;
5819;SDS011;2936;47.348;9.640;2023-01-01T07:01:59;39.42;;;22.55;;
5819;SDS011;2936;47.348;9.640;2023-01-01T07:04:26;34.38;;;22.15;;
5819;SDS011;2936;47.348;9.640;2023-01-01T07:06:54;35.58;;;22.58;;
5819;SDS011;2936;47.348;9.640;2023-01-01T07:09:21;33.70;;;22.13;;
5819;SDS011;2936;47.348;9.640;2023-01-01T07:11:48;38.85;;;22.45;;
5819;SDS011;2936;47.348;9.640;2023-01-01T07:14:17;33.50;;;21.50;;
5819;SDS011;2936;47.348;9.640;2023-01-01T07:16:44;35.28;;;21.88;;
5819;SDS011;2936;47.348;9.640;2023-01-01T07:19:12;42.47;;;22.80;;
5819;SDS011;2936;47.348;9.640;2023-01-01T07:21:40;36.55;;;22.73;;
5819;SDS011;2936;47.348;9.640;2023-01-01T07:24:08;39.33;;;23.20;;
5819;SDS011;2936;47.348;9.640;2023-01-01T07:26:37;35.60;;;23.08;;
5819;SDS011;2936;47.348;9.640;2023-01-01T07:29:05;40.05;;;22.40;;
5819;SDS011;2936;47.348;9.640;2023-01-01T07:31:34;36.13;;;22.60;;
5819;SDS011;2936;47.348;9.640;2023-01-01T07:34:01;41.40;;;23.17;;
5819;SDS011;2936;47.348;9.640;2023-01-01T07:36:29;37.72;;;23.20;;
5819;SDS011;2936;47.348;9.640;2023-01-01T07:38:56;48.72;;;24.63;;
5819;SDS011;2936;47.348;9.640;2023-01-01T07:41:23;37.45;;;22.05;;
5819;SDS011;2936;47.348;9.640;2023-01-01T07:43:51;36.65;;;23.52;;
5819;SDS011;2936;47.348;9.640;2023-01-01T07:46:18;38.75;;;23.83;;
5819;SDS011;2936;47.348;9.640;2023-01-01T07:48:47;38.65;;;23.27;;
5819;SDS011;2936;47.348;9.640;2023-01-01T07:51:14;36.92;;;23.23;;
5819;SDS011;2936;47.348;9.640;2023-01-01T07:53:42;36.80;;;22.52;;
5819;SDS011;2936;47.348;9.640;2023-01-01T07:56:09;39.63;;;23.35;;
5819;SDS011;2936;47.348;9.640;2023-01-01T07:58:37;35.15;;;21.83;;
5819;SDS011;2936;47.348;9.640;2023-01-01T08:01:04;36.58;;;23.15;;
5819;SDS011;2936;47.348;9.640;2023-01-01T08:03:32;43.08;;;21.98;;
5819;SDS011;2936;47.348;9.640;2023-01-01T08:06:00;47.33;;;24.60;;
5819;SDS011;2936;47.348;9.640;2023-01-01T08:08:31;40.42;;;23.20;;
5819;SDS011;2936;47.348;9.640;2023-01-01T08:10:59;39.45;;;23.45;;
5819;SDS011;2936;47.348;9.640;2023-01-01T08:13:26;43.63;;;24.10;;
5819;SDS011;2936;47.348;9.640;2023-01-01T08:15:54;34.53;;;22.45;;
5819;SDS011;2936;47.348;9.640;2023-01-01T08:18:22;38.22;;;22.95;;
5819;SDS011;2936;47.348;9.640;2023-01-01T08:20:49;41.88;;;23.10;;
5819;SDS011;2936;47.348;9.640;2023-01-01T08:23:18;42.72;;;25.02;;
5819;SDS011;2936;47.348;9.640;2023-01-01T08:25:46;43.30;;;24.60;;
5819;SDS011;2936;47.348;9.640;2023-01-01T08:28:13;43.60;;;24.48;;
5819;SDS011;2936;47.348;9.640;2023-01-01T08:30:40;40.92;;;24.50;;
5819;SDS011;2936;47.348;9.640;2023-01-01T08:33:08;39.17;;;23.60;;
5819;SDS011;2936;47.348;9.640;2023-01-01T08:35:35;37.72;;;24.75;;
5819;SDS011;2936;47.348;9.640;2023-01-01T08:38:03;38.53;;;24.08;;
5819;SDS011;2936;47.348;9.640;2023-01-01T08:40:32;37.55;;;23.00;;
5819;SDS011;2936;47.348;9.640;2023-01-01T08:43:00;37.63;;;23.75;;
5819;SDS011;2936;47.348;9.640;2023-01-01T08:45:28;32.97;;;21.92;;
5819;SDS011;2936;47.348;9.640;2023-01-01T08:47:55;33.88;;;20.40;;
5819;SDS011;2936;47.348;9.640;2023-01-01T08:50:22;34.10;;;20.50;;
5819;SDS011;2936;47.348;9.640;2023-01-01T08:52:50;26.80;;;18.33;;
5819;SDS011;2936;47.348;9.640;2023-01-01T08:55:17;33.83;;;17.80;;
5819;SDS011;2936;47.348;9.640;2023-01-01T08:57:46;33.90;;;21.67;;
5819;SDS011;2936;47.348;9.640;2023-01-01T09:00:13;31.98;;;20.60;;
5819;SDS011;2936;47.348;9.640;2023-01-01T09:02:41;32.33;;;21.60;;
5819;SDS011;2936;47.348;9.640;2023-01-01T09:05:08;28.52;;;19.55;;
5819;SDS011;2936;47.348;9.640;2023-01-01T09:07:36;29.83;;;18.15;;
5819;SDS011;2936;47.348;9.640;2023-01-01T09:10:04;23.05;;;16.20;;
5819;SDS011;2936;47.348;9.640;2023-01-01T09:12:31;28.30;;;19.42;;
5819;SDS011;2936;47.348;9.640;2023-01-01T09:15:00;27.63;;;18.67;;
5819;SDS011;2936;47.348;9.640;2023-01-01T09:17:27;31.13;;;19.05;;
5819;SDS011;2936;47.348;9.640;2023-01-01T09:19:55;25.83;;;17.50;;
5819;SDS011;2936;47.348;9.640;2023-01-01T09:22:22;28.08;;;17.92;;
5819;SDS011;2936;47.348;9.640;2023-01-01T09:24:49;25.77;;;17.90;;
5819;SDS011;2936;47.348;9.640;2023-01-01T09:27:19;26.38;;;16.25;;
5819;SDS011;2936;47.348;9.640;2023-01-01T09:29:46;27.23;;;14.75;;
5819;SDS011;2936;47.348;9.640;2023-01-01T09:32:15;19.02;;;14.55;;
5819;SDS011;2936;47.348;9.640;2023-01-01T09:34:42;18.60;;;14.75;;
5819;SDS011;2936;47.348;9.640;2023-01-01T09:37:10;21.20;;;15.18;;
5819;SDS011;2936;47.348;9.640;2023-01-01T09:39:37;20.70;;;14.43;;
5819;SDS011;2936;47.348;9.640;2023-01-01T09:42:08;19.05;;;14.40;;
5819;SDS011;2936;47.348;9.640;2023-01-01T09:44:45;22.00;;;15.35;;
5819;SDS011;2936;47.348;9.640;2023-01-01T09:47:20;23.73;;;15.48;;
5819;SDS011;2936;47.348;9.640;2023-01-01T09:49:47;18.98;;;13.88;;
5819;SDS011;2936;47.348;9.640;2023-01-01T09:52:16;23.33;;;15.88;;
5819;SDS011;2936;47.348;9.640;2023-01-01T09:54:46;19.85;;;14.23;;
5819;SDS011;2936;47.348;9.640;2023-01-01T09:57:15;19.15;;;14.15;;
5819;SDS011;2936;47.348;9.640;2023-01-01T09:59:43;24.52;;;16.10;;
5819;SDS011;2936;47.348;9.640;2023-01-01T10:02:13;24.23;;;16.73;;
5819;SDS011;2936;47.348;9.640;2023-01-01T10:04:50;27.02;;;17.25;;
5819;SDS011;2936;47.348;9.640;2023-01-01T10:07:23;23.90;;;17.30;;
5819;SDS011;2936;47.348;9.640;2023-01-01T10:09:58;24.92;;;16.20;;
5819;SDS011;2936;47.348;9.640;2023-01-01T10:12:30;25.85;;;17.33;;
5819;SDS011;2936;47.348;9.640;2023-01-01T10:15:01;32.88;;;16.95;;
5819;SDS011;2936;47.348;9.640;2023-01-01T10:17:31;27.00;;;17.33;;
5819;SDS011;2936;47.348;9.640;2023-01-01T10:20:02;22.60;;;16.27;;
5819;SDS011;2936;47.348;9.640;2023-01-01T10:22:32;20.50;;;16.65;;
5819;SDS011;2936;47.348;9.640;2023-01-01T10:25:03;25.40;;;17.58;;
5819;SDS011;2936;47.348;9.640;2023-01-01T10:27:33;26.13;;;16.90;;
5819;SDS011;2936;47.348;9.640;2023-01-01T10:30:05;30.70;;;17.75;;
5819;SDS011;2936;47.348;9.640;2023-01-01T10:32:36;30.92;;;17.73;;
5819;SDS011;2936;47.348;9.640;2023-01-01T10:35:09;22.80;;;17.73;;
5819;SDS011;2936;47.348;9.640;2023-01-01T10:37:38;23.63;;;16.80;;
5819;SDS011;2936;47.348;9.640;2023-01-01T10:40:12;28.08;;;17.63;;
5819;SDS011;2936;47.348;9.640;2023-01-01T10:42:40;24.85;;;16.95;;
5819;SDS011;2936;47.348;9.640;2023-01-01T10:45:10;24.25;;;16.40;;
5819;SDS011;2936;47.348;9.640;2023-01-01T10:47:38;23.42;;;15.77;;
5819;SDS011;2936;47.348;9.640;2023-01-01T10:50:07;22.90;;;15.60;;
5819;SDS011;2936;47.348;9.640;2023-01-01T10:52:36;22.92;;;13.68;;
5819;SDS011;2936;47.348;9.640;2023-01-01T10:55:04;19.67;;;12.60;;
5819;SDS011;2936;47.348;9.640;2023-01-01T10:57:33;20.45;;;12.77;;
5819;SDS011;2936;47.348;9.640;2023-01-01T11:00:10;17.10;;;13.18;;
5819;SDS011;2936;47.348;9.640;2023-01-01T11:02:37;21.10;;;14.52;;
5819;SDS011;2936;47.348;9.640;2023-01-01T11:05:13;20.20;;;14.82;;
5819;SDS011;2936;47.348;9.640;2023-01-01T11:07:41;21.27;;;14.30;;
5819;SDS011;2936;47.348;9.640;2023-01-01T11:10:14;20.38;;;14.10;;
5819;SDS011;2936;47.348;9.640;2023-01-01T11:12:42;16.33;;;13.30;;
5819;SDS011;2936;47.348;9.640;2023-01-01T11:15:19;16.85;;;13.45;;
5819;SDS011;2936;47.348;9.640;2023-01-01T11:17:46;17.02;;;12.75;;
5819;SDS011;2936;47.348;9.640;2023-01-01T11:20:17;15.45;;;11.82;;
5819;SDS011;2936;47.348;9.640;2023-01-01T11:22:45;24.35;;;12.82;;
5819;SDS011;2936;47.348;9.640;2023-01-01T11:25:16;15.18;;;12.98;;
5819;SDS011;2936;47.348;9.640;2023-01-01T11:27:44;16.27;;;11.25;;
5819;SDS011;2936;47.348;9.640;2023-01-01T11:32:57;12.60;;;10.38;;
5819;SDS011;2936;47.348;9.640;2023-01-01T11:35:28;12.10;;;10.23;;
5819;SDS011;2936;47.348;9.640;2023-01-01T11:37:56;15.10;;;10.82;;
5819;SDS011;2936;47.348;9.640;2023-01-01T11:40:24;12.15;;;9.35;;
5819;SDS011;2936;47.348;9.640;2023-01-01T11:42:55;10.40;;;9.30;;
5819;SDS011;2936;47.348;9.640;2023-01-01T11:45:24;10.25;;;8.50;;
5819;SDS011;2936;47.348;9.640;2023-01-01T11:47:52;8.35;;;7.45;;
5819;SDS011;2936;47.348;9.640;2023-01-01T11:50:27;6.95;;;6.32;;
5819;SDS011;2936;47.348;9.640;2023-01-01T11:52:55;8.68;;;7.72;;
5819;SDS011;2936;47.348;9.640;2023-01-01T11:55:26;8.95;;;6.50;;
5819;SDS011;2936;47.348;9.640;2023-01-01T11:57:57;5.38;;;4.97;;
5819;SDS011;2936;47.348;9.640;2023-01-01T12:00:25;6.03;;;5.47;;
5819;SDS011;2936;47.348;9.640;2023-01-01T12:02:57;4.68;;;4.28;;
5819;SDS011;2936;47.348;9.640;2023-01-01T12:05:36;5.97;;;4.30;;
5819;SDS011;2936;47.348;9.640;2023-01-01T12:08:07;4.57;;;4.13;;
5819;SDS011;2936;47.348;9.640;2023-01-01T12:10:39;5.93;;;3.97;;
5819;SDS011;2936;47.348;9.640;2023-01-01T12:13:10;5.15;;;4.10;;
5819;SDS011;2936;47.348;9.640;2023-01-01T12:15:40;4.75;;;4.45;;
5819;SDS011;2936;47.348;9.640;2023-01-01T12:18:12;4.83;;;4.47;;
5819;SDS011;2936;47.348;9.640;2023-01-01T12:20:43;5.07;;;4.60;;
5819;SDS011;2936;47.348;9.640;2023-01-01T12:23:14;5.20;;;4.90;;
5819;SDS011;2936;47.348;9.640;2023-01-01T12:25:43;5.87;;;5.30;;
5819;SDS011;2936;47.348;9.640;2023-01-01T12:28:16;5.90;;;5.30;;
5819;SDS011;2936;47.348;9.640;2023-01-01T12:30:50;5.37;;;4.97;;
5819;SDS011;2936;47.348;9.640;2023-01-01T12:36:13;5.00;;;4.50;;
5819;SDS011;2936;47.348;9.640;2023-01-01T12:38:49;5.10;;;3.93;;
5819;SDS011;2936;47.348;9.640;2023-01-01T12:41:27;4.00;;;3.80;;
5819;SDS011;2936;47.348;9.640;2023-01-01T12:43:57;4.17;;;3.87;;
5819;SDS011;2936;47.348;9.640;2023-01-01T12:46:30;3.80;;;3.60;;
5819;SDS011;2936;47.348;9.640;2023-01-01T12:49:06;3.57;;;3.33;;
5819;SDS011;2936;47.348;9.640;2023-01-01T12:51:41;4.60;;;3.43;;
5819;SDS011;2936;47.348;9.640;2023-01-01T12:54:21;3.33;;;3.13;;
5819;SDS011;2936;47.348;9.640;2023-01-01T12:56:55;4.43;;;4.13;;
5819;SDS011;2936;47.348;9.640;2023-01-01T12:59:26;3.10;;;3.00;;
5819;SDS011;2936;47.348;9.640;2023-01-01T13:01:56;2.90;;;2.80;;
5819;SDS011;2936;47.348;9.640;2023-01-01T13:04:24;3.27;;;3.07;;
5819;SDS011;2936;47.348;9.640;2023-01-01T13:06:54;2.90;;;2.80;;
5819;SDS011;2936;47.348;9.640;2023-01-01T13:09:28;3.03;;;2.83;;
5819;SDS011;2936;47.348;9.640;2023-01-01T13:11:56;3.37;;;3.17;;
5819;SDS011;2936;47.348;9.640;2023-01-01T13:14:25;3.97;;;3.60;;
5819;SDS011;2936;47.348;9.640;2023-01-01T13:16:53;3.60;;;3.40;;
5819;SDS011;2936;47.348;9.640;2023-01-01T13:19:22;3.77;;;3.40;;
5819;SDS011;2936;47.348;9.640;2023-01-01T13:21:50;4.10;;;3.53;;
5819;SDS011;2936;47.348;9.640;2023-01-01T13:24:20;4.33;;;3.97;;
5819;SDS011;2936;47.348;9.640;2023-01-01T13:26:48;7.30;;;4.60;;
5819;SDS011;2936;47.348;9.640;2023-01-01T13:29:28;4.50;;;4.20;;
5819;SDS011;2936;47.348;9.640;2023-01-01T13:31:58;9.10;;;4.67;;
5819;SDS011;2936;47.348;9.640;2023-01-01T13:34:33;5.50;;;4.30;;
5819;SDS011;2936;47.348;9.640;2023-01-01T13:39:52;4.67;;;4.20;;
5819;SDS011;2936;47.348;9.640;2023-01-01T13:42:39;4.70;;;4.17;;
5819;SDS011;2936;47.348;9.640;2023-01-01T13:45:10;4.33;;;3.93;;
5819;SDS011;2936;47.348;9.640;2023-01-01T13:47:47;3.60;;;3.30;;
5819;SDS011;2936;47.348;9.640;2023-01-01T13:50:18;3.53;;;3.30;;
5819;SDS011;2936;47.348;9.640;2023-01-01T13:58:26;4.13;;;3.83;;
5819;SDS011;2936;47.348;9.640;2023-01-01T14:01:04;4.03;;;3.73;;
5819;SDS011;2936;47.348;9.640;2023-01-01T14:03:41;4.40;;;4.10;;
5819;SDS011;2936;47.348;9.640;2023-01-01T14:06:09;4.90;;;4.50;;
5819;SDS011;2936;47.348;9.640;2023-01-01T14:08:37;4.10;;;3.73;;
5819;SDS011;2936;47.348;9.640;2023-01-01T14:11:16;4.00;;;3.70;;
5819;SDS011;2936;47.348;9.640;2023-01-01T14:13:45;8.40;;;3.97;;
5819;SDS011;2936;47.348;9.640;2023-01-01T14:16:13;4.33;;;3.93;;
5819;SDS011;2936;47.348;9.640;2023-01-01T14:18:41;4.20;;;4.00;;
5819;SDS011;2936;47.348;9.640;2023-01-01T14:21:10;5.20;;;4.70;;
5819;SDS011;2936;47.348;9.640;2023-01-01T14:23:40;5.70;;;4.33;;
5819;SDS011;2936;47.348;9.640;2023-01-01T14:26:09;4.13;;;3.73;;
5819;SDS011;2936;47.348;9.640;2023-01-01T14:28:38;4.20;;;3.90;;
5819;SDS011;2936;47.348;9.640;2023-01-01T14:31:08;6.97;;;4.33;;
5819;SDS011;2936;47.348;9.640;2023-01-01T14:33:37;3.97;;;3.60;;
5819;SDS011;2936;47.348;9.640;2023-01-01T14:36:05;5.43;;;4.30;;
5819;SDS011;2936;47.348;9.640;2023-01-01T14:38:41;4.70;;;4.37;;
5819;SDS011;2936;47.348;9.640;2023-01-01T14:41:10;5.30;;;4.60;;
5819;SDS011;2936;47.348;9.640;2023-01-01T14:43:39;4.63;;;4.03;;
5819;SDS011;2936;47.348;9.640;2023-01-01T14:46:12;8.10;;;3.97;;
5819;SDS011;2936;47.348;9.640;2023-01-01T14:48:41;5.57;;;4.43;;
5819;SDS011;2936;47.348;9.640;2023-01-01T14:51:10;5.07;;;4.57;;
5819;SDS011;2936;47.348;9.640;2023-01-01T14:53:39;3.93;;;3.63;;
5819;SDS011;2936;47.348;9.640;2023-01-01T14:56:07;4.03;;;3.83;;
5819;SDS011;2936;47.348;9.640;2023-01-01T14:58:38;4.03;;;3.73;;
5819;SDS011;2936;47.348;9.640;2023-01-01T15:01:14;4.00;;;3.40;;
5819;SDS011;2936;47.348;9.640;2023-01-01T15:03:53;4.30;;;3.90;;
5819;SDS011;2936;47.348;9.640;2023-01-01T15:06:21;4.90;;;4.53;;
5819;SDS011;2936;47.348;9.640;2023-01-01T15:08:49;5.13;;;4.35;;
5819;SDS011;2936;47.348;9.640;2023-01-01T15:11:17;5.73;;;4.20;;
5819;SDS011;2936;47.348;9.640;2023-01-01T15:13:55;7.97;;;5.15;;
5819;SDS011;2936;47.348;9.640;2023-01-01T15:16:24;8.15;;;5.43;;